Weather at Vienna International Airport

Public forecast

Using degrees Celsius for public forecast. Weather courtesy of forecast.io.

Current aviation weather report (METAR) for Vienna International Airport

Retrieved 2021/07/29 08:50 UTC (13 minutes ago):

LOWW 290850Z VRB03KT 9999 FEW040 25/16 Q1016 NOSIG

Aviation forecast (TAF) for Vienna International Airport

Retrieved 2021/07/29 09:20 UTC (0 seconds ago):

TAF LOWW 290815Z 2909/3015 29007KT CAVOK TX30/3015Z TN18/3003Z BECMG 2912/2914 VRB03KT TEMPO 3013/3015 FEW060CB